createdAt,value
2022-12-11T00:00:51.682Z,1.00
2022-12-11T00:03:21.053Z,0.90
2022-12-11T00:05:52.180Z,1.00
2022-12-11T00:08:21.548Z,1.00
2022-12-11T00:10:51.594Z,1.10
2022-12-11T00:13:20.853Z,1.00
2022-12-11T00:15:50.106Z,1.00
2022-12-11T00:18:19.483Z,1.10
2022-12-11T00:20:48.793Z,1.10
2022-12-11T00:23:19.597Z,1.10
2022-12-11T00:25:49.995Z,1.20
2022-12-11T00:28:20.001Z,1.20
2022-12-11T00:30:50.331Z,1.20
2022-12-11T00:33:20.116Z,1.10
2022-12-11T00:35:49.918Z,1.10
2022-12-11T00:38:22.423Z,1.10
2022-12-11T00:40:51.129Z,1.20
2022-12-11T00:43:20.194Z,1.10
2022-12-11T00:45:49.464Z,1.10
2022-12-11T00:48:18.281Z,1.00
2022-12-11T00:50:47.886Z,1.00
2022-12-11T00:53:17.338Z,1.00
2022-12-11T00:55:47.989Z,1.00
2022-12-11T00:58:17.352Z,1.00
2022-12-11T01:00:46.314Z,1.00
2022-12-11T01:03:16.085Z,1.00
2022-12-11T01:05:53.425Z,1.10
2022-12-11T01:08:22.591Z,1.10
2022-12-11T01:10:52.225Z,1.10
2022-12-11T01:13:21.292Z,1.10
2022-12-11T01:15:50.752Z,1.10
2022-12-11T01:18:19.451Z,1.10
2022-12-11T01:20:48.238Z,1.00
2022-12-11T01:23:16.963Z,1.00
2022-12-11T01:25:46.205Z,1.00
2022-12-11T01:28:16.488Z,1.00
2022-12-11T01:30:45.627Z,1.00
2022-12-11T01:33:14.666Z,1.00
2022-12-11T01:35:43.689Z,0.90
2022-12-11T01:38:13.074Z,0.90
2022-12-11T01:40:54.314Z,1.00
2022-12-11T01:43:24.983Z,1.00
2022-12-11T01:45:53.954Z,1.10
2022-12-11T01:48:25.006Z,1.00
2022-12-11T01:50:57.009Z,1.00
2022-12-11T01:53:29.508Z,1.00
2022-12-11T01:56:01.471Z,0.90
2022-12-11T01:58:41.401Z,1.00
2022-12-11T02:01:15.312Z,1.00
2022-12-11T02:03:44.650Z,1.00
2022-12-11T02:06:32.455Z,1.00
2022-12-11T02:09:02.362Z,1.00
2022-12-11T02:11:42.757Z,1.10
2022-12-11T02:14:19.587Z,1.00
2022-12-11T02:16:55.868Z,1.10
2022-12-11T02:19:43.865Z,1.10
2022-12-11T02:22:20.565Z,1.10
2022-12-11T02:25:07.503Z,1.20
2022-12-11T02:27:43.144Z,1.20
2022-12-11T02:30:16.397Z,1.20
2022-12-11T02:32:49.981Z,1.30
2022-12-11T02:35:21.740Z,1.20
2022-12-11T02:37:58.718Z,1.20
2022-12-11T02:40:33.084Z,1.20
2022-12-11T02:43:06.415Z,1.20
2022-12-11T02:45:38.780Z,1.20
2022-12-11T02:48:10.003Z,1.30
2022-12-11T02:50:42.446Z,1.30
2022-12-11T02:53:15.031Z,1.30
2022-12-11T02:55:45.680Z,1.30
2022-12-11T02:58:19.761Z,1.30
2022-12-11T03:00:50.500Z,1.30
2022-12-11T03:03:19.573Z,1.30
2022-12-11T03:05:48.378Z,1.30
2022-12-11T03:08:18.249Z,1.30
2022-12-11T03:10:48.354Z,1.30
2022-12-11T03:13:21.915Z,1.30
2022-12-11T03:16:04.848Z,1.20
2022-12-11T03:18:40.649Z,1.20
2022-12-11T03:21:16.596Z,1.30
2022-12-11T03:23:51.659Z,1.30
2022-12-11T03:26:22.052Z,1.30
2022-12-11T03:28:56.699Z,1.30
2022-12-11T03:31:30.838Z,1.30
2022-12-11T03:34:04.441Z,1.30
2022-12-11T03:36:36.776Z,1.30
2022-12-11T03:39:11.389Z,1.30
2022-12-11T03:41:42.773Z,1.30
2022-12-11T03:44:14.209Z,1.30
2022-12-11T03:46:48.299Z,1.30
2022-12-11T03:49:21.530Z,1.30
2022-12-11T03:51:53.365Z,1.30
2022-12-11T03:54:23.532Z,1.40
2022-12-11T03:56:55.600Z,1.40
2022-12-11T03:59:25.218Z,1.40
2022-12-11T04:01:57.630Z,1.40
2022-12-11T04:04:27.540Z,1.40
2022-12-11T04:06:57.253Z,1.40
2022-12-11T04:09:26.921Z,1.40
2022-12-11T04:11:57.036Z,1.40
2022-12-11T04:14:43.290Z,1.40
2022-12-11T04:17:35.440Z,1.40
2022-12-11T04:20:21.845Z,1.40
2022-12-11T04:23:08.600Z,1.40
2022-12-11T04:25:37.853Z,1.50
2022-12-11T04:28:07.163Z,1.50
2022-12-11T04:30:36.492Z,1.50
2022-12-11T04:33:07.636Z,1.50
2022-12-11T04:35:37.437Z,1.50
2022-12-11T04:38:06.714Z,1.50
2022-12-11T04:40:35.822Z,1.50
2022-12-11T05:19:43.671Z,1.40
2022-12-11T07:33:55.842Z,1.40
2022-12-11T07:36:54.379Z,1.40
2022-12-11T07:39:59.564Z,1.40
2022-12-11T07:42:48.886Z,1.40
2022-12-11T07:45:48.900Z,1.40
2022-12-11T07:48:33.770Z,1.30
2022-12-11T07:51:31.721Z,1.30
2022-12-11T07:54:18.878Z,1.30
2022-12-11T07:56:53.736Z,1.40
2022-12-11T07:59:23.269Z,1.40
2022-12-11T08:01:54.554Z,1.40
2022-12-11T08:04:25.259Z,1.40
2022-12-11T08:06:55.658Z,1.40
2022-12-11T08:09:26.770Z,1.50
2022-12-11T08:11:57.245Z,1.50
2022-12-11T08:14:26.934Z,1.40
2022-12-11T08:16:58.707Z,1.40
2022-12-11T08:19:28.402Z,1.50
2022-12-11T08:21:57.828Z,1.50
2022-12-11T08:24:28.652Z,1.50
2022-12-11T08:26:57.817Z,1.50
2022-12-11T08:29:27.140Z,1.50
2022-12-11T08:31:57.733Z,1.50
2022-12-11T08:34:26.992Z,1.50
2022-12-11T08:36:56.898Z,1.50
2022-12-11T08:39:32.559Z,1.60
2022-12-11T08:42:03.469Z,1.60
2022-12-11T08:44:32.657Z,1.60
2022-12-11T08:47:01.982Z,1.70
2022-12-11T08:49:34.372Z,1.70
2022-12-11T08:52:07.217Z,1.70
2022-12-11T08:54:38.911Z,1.70
2022-12-11T08:57:08.511Z,1.80
2022-12-11T08:59:38.009Z,1.80
2022-12-11T09:02:07.039Z,1.90
2022-12-11T09:04:36.575Z,1.90
2022-12-11T09:07:06.082Z,1.90
2022-12-11T09:09:42.383Z,1.90
2022-12-11T09:12:11.739Z,1.90
2022-12-11T09:14:41.181Z,1.90
2022-12-11T09:17:10.650Z,2.00
2022-12-11T09:19:39.583Z,1.90
2022-12-11T09:22:12.117Z,2.00
2022-12-11T09:24:43.140Z,2.00
2022-12-11T09:27:12.354Z,2.00
2022-12-11T09:29:41.585Z,2.10
2022-12-11T09:32:10.473Z,2.10
2022-12-11T09:34:46.073Z,2.10
2022-12-11T09:37:18.403Z,2.00
2022-12-11T09:39:50.891Z,2.10
2022-12-11T09:42:28.341Z,2.10
2022-12-11T09:45:00.540Z,2.10
2022-12-11T09:47:38.234Z,2.10
2022-12-11T09:50:18.070Z,2.10
2022-12-11T09:53:03.753Z,2.10
2022-12-11T09:55:43.987Z,2.10
2022-12-11T09:58:32.779Z,2.10
2022-12-11T10:01:13.068Z,2.10
2022-12-11T10:04:09.374Z,2.10
2022-12-11T10:06:49.675Z,2.10
2022-12-11T10:09:31.076Z,2.10
2022-12-11T10:12:19.417Z,2.10
2022-12-11T10:15:03.301Z,2.10
2022-12-11T10:17:36.990Z,2.10
2022-12-11T10:20:22.606Z,2.10
2022-12-11T10:22:54.487Z,2.10
2022-12-11T10:25:29.509Z,2.10
2022-12-11T10:28:14.027Z,2.00
2022-12-11T10:30:57.000Z,2.10
2022-12-11T10:33:43.778Z,2.10
2022-12-11T10:36:39.565Z,2.10
2022-12-11T10:39:22.620Z,2.20
2022-12-11T10:41:53.817Z,2.20
2022-12-11T10:44:26.190Z,2.30
2022-12-11T10:47:04.450Z,2.30
2022-12-11T10:49:35.032Z,2.30
2022-12-11T10:52:12.358Z,2.30
2022-12-11T10:54:43.979Z,2.20
2022-12-11T10:57:17.152Z,2.10
2022-12-11T10:59:50.762Z,2.10
2022-12-11T11:02:26.974Z,2.10
2022-12-11T11:04:56.980Z,2.10
2022-12-11T11:07:28.257Z,2.00
2022-12-11T11:10:15.713Z,2.10
2022-12-11T11:12:46.276Z,2.10
2022-12-11T11:15:22.149Z,2.10
2022-12-11T11:17:55.769Z,2.20
2022-12-11T11:20:33.659Z,2.30
2022-12-11T11:23:07.738Z,2.30
2022-12-11T11:25:36.273Z,2.30
2022-12-11T11:28:07.081Z,2.40
2022-12-11T11:30:39.862Z,2.30
2022-12-11T11:33:16.835Z,2.30
2022-12-11T11:35:54.081Z,2.40
2022-12-11T11:38:29.074Z,2.50
2022-12-11T11:41:13.083Z,2.50
2022-12-11T11:43:47.410Z,2.50
2022-12-11T11:46:23.952Z,2.40
2022-12-11T11:49:00.883Z,2.40
2022-12-11T11:51:36.228Z,2.40
2022-12-11T11:54:12.057Z,2.30
2022-12-11T11:56:43.135Z,2.20
2022-12-11T11:59:20.661Z,2.20
2022-12-11T12:01:53.824Z,2.20
2022-12-11T12:04:22.954Z,2.30
2022-12-11T12:07:12.279Z,2.30
2022-12-11T12:09:50.251Z,2.50
2022-12-11T12:12:33.934Z,2.40
2022-12-11T12:15:28.051Z,2.30
2022-12-11T12:18:17.605Z,2.20
2022-12-11T12:20:58.840Z,2.30
2022-12-11T12:23:45.596Z,2.50
2022-12-11T12:26:21.192Z,2.70
2022-12-11T12:29:01.835Z,2.70
2022-12-11T12:31:44.548Z,2.80
2022-12-11T12:34:30.760Z,2.90
2022-12-11T12:37:10.613Z,2.90
2022-12-11T12:39:48.217Z,2.90
2022-12-11T12:42:25.858Z,2.60
2022-12-11T12:45:01.297Z,2.70
2022-12-11T12:47:34.264Z,2.70
2022-12-11T12:50:11.883Z,2.70
2022-12-11T12:52:42.296Z,2.70
2022-12-11T12:55:24.227Z,2.70
2022-12-11T12:57:56.325Z,2.60
2022-12-11T13:00:30.501Z,2.60
2022-12-11T13:03:05.649Z,2.80
2022-12-11T13:05:36.650Z,2.90
2022-12-11T13:08:07.321Z,2.90
2022-12-11T13:10:38.248Z,2.90
2022-12-11T13:13:26.401Z,2.90
2022-12-11T13:15:55.534Z,2.90
2022-12-11T13:18:35.304Z,2.90
2022-12-11T13:21:21.630Z,2.70
2022-12-11T13:23:51.040Z,2.70
2022-12-11T13:26:30.109Z,2.60
2022-12-11T13:28:59.478Z,2.60
2022-12-11T13:31:39.137Z,2.60
2022-12-11T13:34:19.164Z,2.60
2022-12-11T13:36:54.525Z,2.60
2022-12-11T13:39:28.973Z,2.60
2022-12-11T13:42:02.306Z,2.60
2022-12-11T13:44:33.740Z,2.60
2022-12-11T13:47:05.065Z,2.60
2022-12-11T13:49:38.928Z,2.50
2022-12-11T13:52:10.080Z,2.50
2022-12-11T13:54:39.033Z,2.50
2022-12-11T13:57:19.082Z,2.50
2022-12-11T13:59:53.650Z,2.50
2022-12-11T14:02:27.179Z,2.50
2022-12-11T14:05:00.387Z,2.50
2022-12-11T14:07:33.643Z,2.50
2022-12-11T14:10:08.437Z,2.40
2022-12-11T14:12:38.908Z,2.40
2022-12-11T14:15:08.525Z,2.40
2022-12-11T14:17:38.231Z,2.40
2022-12-11T14:20:09.147Z,2.30
2022-12-11T14:22:40.036Z,2.20
2022-12-11T14:25:27.918Z,2.20
2022-12-11T14:27:58.826Z,2.20
2022-12-11T14:30:30.702Z,2.10
2022-12-11T14:33:02.166Z,2.10
2022-12-11T14:35:38.933Z,2.10
2022-12-11T14:38:15.676Z,2.20
2022-12-11T14:40:49.048Z,2.20
2022-12-11T14:43:25.092Z,2.30
2022-12-11T14:45:59.547Z,2.20
2022-12-11T14:48:34.637Z,2.10
2022-12-11T14:51:07.640Z,2.10
2022-12-11T14:53:41.976Z,2.10
2022-12-11T14:56:19.410Z,2.10
2022-12-11T14:59:01.386Z,2.00
2022-12-11T15:01:32.824Z,2.00
2022-12-11T15:04:07.614Z,1.90
2022-12-11T15:06:44.401Z,1.90
2022-12-11T15:09:23.359Z,1.90
2022-12-11T15:11:52.664Z,1.80
2022-12-11T15:14:24.222Z,1.80
2022-12-11T15:16:55.452Z,1.90
2022-12-11T15:19:27.641Z,1.90
2022-12-11T15:21:57.858Z,1.90
2022-12-11T15:24:35.528Z,1.80
2022-12-11T15:27:04.497Z,1.80
2022-12-11T15:29:36.676Z,1.70
2022-12-11T15:32:18.843Z,1.60
2022-12-11T15:34:52.589Z,1.70
2022-12-11T15:37:24.704Z,1.80
2022-12-11T15:39:56.453Z,1.80
2022-12-11T15:42:28.519Z,1.80
2022-12-11T15:44:59.089Z,1.70
2022-12-11T15:47:32.106Z,1.70
2022-12-11T15:50:03.112Z,1.60
2022-12-11T15:52:34.714Z,1.70
2022-12-11T15:55:05.536Z,1.70
2022-12-11T15:57:34.701Z,1.70
2022-12-11T16:00:04.273Z,1.70
2022-12-11T16:02:34.187Z,1.80
2022-12-11T16:05:03.390Z,1.70
2022-12-11T16:07:33.361Z,1.70
2022-12-11T16:10:02.710Z,1.60
2022-12-11T16:12:33.425Z,1.70
2022-12-11T16:15:02.491Z,1.70
2022-12-11T16:17:31.946Z,1.70
2022-12-11T16:20:01.967Z,1.70
2022-12-11T16:22:31.384Z,1.60
2022-12-11T16:25:03.708Z,1.60
2022-12-11T16:27:36.044Z,1.60
2022-12-11T16:30:06.129Z,1.50
2022-12-11T16:32:35.771Z,1.50
2022-12-11T16:35:05.115Z,1.50
2022-12-11T16:37:34.024Z,1.50
2022-12-11T16:40:04.003Z,1.40
2022-12-11T16:42:34.996Z,1.40
2022-12-11T16:45:08.692Z,1.40
2022-12-11T16:47:37.784Z,1.40
2022-12-11T16:50:08.044Z,1.40
2022-12-11T16:52:37.185Z,1.30
2022-12-11T16:55:06.640Z,1.30
2022-12-11T16:57:37.660Z,1.30
2022-12-11T17:00:07.581Z,1.30
2022-12-11T17:02:36.705Z,1.20
2022-12-11T17:05:06.376Z,1.30
2022-12-11T17:07:36.705Z,1.40
2022-12-11T17:10:05.880Z,1.40
2022-12-11T17:12:36.406Z,1.40
2022-12-11T17:15:05.528Z,1.40
2022-12-11T17:17:34.835Z,1.50
2022-12-11T17:20:05.465Z,1.60
2022-12-11T17:22:41.096Z,1.40
2022-12-11T17:25:22.889Z,1.20
2022-12-11T17:28:02.774Z,1.20
2022-12-11T17:30:32.354Z,1.30
2022-12-11T17:33:09.849Z,1.30
2022-12-11T17:35:39.134Z,1.10
2022-12-11T17:38:08.781Z,1.10
2022-12-11T17:40:41.289Z,1.00
2022-12-11T17:43:12.729Z,1.20
2022-12-11T17:45:47.734Z,1.10
2022-12-11T17:48:18.461Z,1.00
2022-12-11T17:50:49.966Z,1.00
2022-12-11T17:53:22.907Z,1.10
2022-12-11T17:55:52.634Z,1.10
2022-12-11T17:58:27.005Z,1.20
2022-12-11T18:00:58.643Z,1.30
2022-12-11T18:03:30.008Z,1.20
2022-12-11T18:06:05.485Z,1.00
2022-12-11T18:08:35.487Z,0.90
2022-12-11T18:11:09.961Z,0.90
2022-12-11T18:13:42.535Z,0.90
2022-12-11T18:16:19.205Z,1.00
2022-12-11T18:18:50.668Z,1.10
2022-12-11T18:21:22.484Z,1.00
2022-12-11T18:23:52.416Z,0.90
2022-12-11T18:26:22.532Z,1.00
2022-12-11T18:28:54.209Z,1.00
2022-12-11T18:31:24.616Z,1.00
2022-12-11T18:33:57.250Z,1.00
2022-12-11T18:36:27.385Z,1.00
2022-12-11T18:38:56.683Z,1.10
2022-12-11T18:41:26.331Z,1.10
2022-12-11T18:43:59.328Z,1.00
2022-12-11T18:46:29.217Z,1.00
2022-12-11T18:48:59.547Z,1.00
2022-12-11T18:51:31.683Z,1.00
2022-12-11T18:54:00.884Z,1.20
2022-12-11T18:56:33.379Z,1.20
2022-12-11T18:59:04.812Z,1.10
2022-12-11T19:01:35.252Z,1.00
2022-12-11T19:04:10.440Z,1.10
2022-12-11T19:06:40.641Z,1.20
2022-12-11T19:09:13.220Z,1.20
2022-12-11T19:11:45.315Z,1.20
2022-12-11T19:14:16.930Z,1.30
2022-12-11T19:16:47.957Z,1.40
2022-12-11T19:19:21.965Z,1.20
2022-12-11T19:21:52.039Z,1.20
2022-12-11T19:24:32.981Z,1.20
2022-12-11T19:27:02.476Z,1.10
2022-12-11T19:29:34.628Z,1.10
2022-12-11T19:32:05.007Z,1.20
2022-12-11T19:34:34.440Z,1.20
2022-12-11T19:37:03.741Z,1.20
2022-12-11T19:39:35.035Z,1.10
2022-12-11T19:42:05.267Z,1.10
2022-12-11T19:44:38.247Z,1.30
2022-12-11T19:47:08.516Z,1.30
2022-12-11T19:49:42.070Z,1.40
2022-12-11T19:52:13.731Z,1.40
2022-12-11T19:54:46.306Z,1.40
2022-12-11T19:57:18.267Z,1.40
2022-12-11T19:59:57.375Z,1.40
2022-12-11T20:02:32.707Z,1.30
2022-12-11T20:05:06.067Z,1.20
2022-12-11T20:07:41.030Z,1.20
2022-12-11T20:10:15.622Z,1.00
2022-12-11T20:12:50.719Z,0.90
2022-12-11T20:15:44.977Z,0.90
2022-12-11T20:18:18.504Z,0.90
2022-12-11T20:20:53.175Z,0.80
2022-12-11T20:23:28.864Z,0.80
2022-12-11T20:26:15.790Z,1.00
2022-12-11T20:28:55.550Z,1.00
2022-12-11T20:31:29.179Z,1.30
2022-12-11T20:34:10.108Z,1.30
2022-12-11T20:36:45.666Z,1.30
2022-12-11T20:39:16.347Z,1.40
2022-12-11T20:41:54.080Z,1.40
2022-12-11T20:44:28.329Z,1.40
2022-12-11T20:46:58.963Z,1.30
2022-12-11T20:49:29.412Z,1.30
2022-12-11T20:51:58.791Z,1.20
2022-12-11T20:54:28.116Z,1.20
2022-12-11T20:56:56.914Z,1.20
2022-12-11T20:59:26.439Z,1.30
2022-12-11T21:01:59.639Z,1.20
2022-12-11T21:04:36.229Z,1.30
2022-12-11T21:07:06.541Z,1.20
2022-12-11T21:09:43.526Z,1.10
2022-12-11T21:12:13.770Z,1.20
2022-12-11T21:14:46.239Z,1.20
2022-12-11T21:17:16.184Z,1.20
2022-12-11T21:19:53.595Z,1.10
2022-12-11T21:22:27.235Z,1.00
2022-12-11T21:25:02.444Z,1.10
2022-12-11T21:27:35.627Z,1.30
2022-12-11T21:30:07.711Z,1.40
2022-12-11T21:32:38.060Z,1.40
2022-12-11T21:35:10.452Z,1.40
2022-12-11T21:37:43.931Z,1.30
2022-12-11T21:40:13.133Z,1.40
2022-12-11T21:42:41.638Z,1.40
2022-12-11T21:47:59.332Z,1.40
2022-12-11T21:50:29.525Z,1.30
2022-12-11T21:52:58.200Z,1.40
2022-12-11T21:55:26.848Z,1.40
2022-12-11T21:57:56.219Z,1.30
2022-12-11T22:00:25.032Z,1.20
2022-12-11T22:02:53.423Z,1.10
2022-12-11T22:05:22.026Z,1.30
2022-12-11T22:07:52.278Z,1.60
2022-12-11T22:10:20.910Z,1.70
2022-12-11T22:12:49.564Z,1.70
2022-12-11T22:15:18.063Z,1.70
2022-12-11T22:17:47.875Z,1.70
2022-12-11T22:20:16.393Z,1.60
2022-12-11T22:22:45.163Z,1.60
2022-12-11T22:25:15.411Z,1.60
2022-12-11T22:27:44.112Z,1.50
2022-12-11T22:30:13.785Z,1.30
2022-12-11T22:32:43.423Z,1.30
2022-12-11T22:35:12.414Z,1.30
2022-12-11T22:37:41.059Z,1.50
2022-12-11T22:40:13.229Z,1.70
2022-12-11T22:42:44.613Z,1.70
2022-12-11T22:45:13.853Z,1.50
2022-12-11T22:47:43.415Z,1.30
2022-12-11T22:50:12.961Z,1.30
2022-12-11T22:52:42.050Z,1.30
2022-12-11T22:55:11.176Z,1.40
2022-12-11T22:57:41.938Z,1.50
2022-12-11T23:00:15.075Z,1.50
2022-12-11T23:02:47.787Z,1.50
2022-12-11T23:05:16.477Z,1.60
2022-12-11T23:07:45.684Z,1.70
2022-12-11T23:10:14.248Z,1.70
2022-12-11T23:12:49.229Z,1.60
2022-12-11T23:15:19.670Z,1.50
2022-12-11T23:17:48.907Z,1.50
2022-12-11T23:20:17.501Z,1.40
2022-12-11T23:22:46.231Z,1.50
2022-12-11T23:25:15.082Z,1.60
2022-12-11T23:27:44.991Z,1.60
2022-12-11T23:30:14.608Z,1.60
2022-12-11T23:32:44.706Z,1.60
2022-12-11T23:35:14.186Z,1.50
2022-12-11T23:37:43.006Z,1.60
2022-12-11T23:40:14.273Z,1.70
2022-12-11T23:42:43.149Z,1.60
2022-12-11T23:45:12.100Z,1.50
2022-12-11T23:47:41.291Z,1.60
2022-12-11T23:50:11.644Z,1.70
2022-12-11T23:52:40.267Z,1.70
2022-12-11T23:55:10.328Z,1.70
2022-12-11T23:57:39.974Z,1.70
